DBBB

Cadjehoun Airport

Cotonou, Benin
METAR DBBB 250000Z 21011KT 9999 FEW012 29/26 Q1011 NOSIG
Observed Flight Rules
Apr-25 @ 00:00 UTC (32 minutes ago) Visual Flight Rules
Wind Visibility Clouds
210° at 11 knots 10,000+ meters
  • Few at 1,200' AGL
Temperatures Readings
Current 29°C / 84°F
Dewpoint 26°C / 79°F
Humidity 84%
Altimeter 29.85" Hg
Pressure 1011 hPa
Elevation 9
METAR DBBB 250000Z 21011KT 9999 FEW012 29/26 Q1011 NOSIG
Observed Flight Rules
Apr-25 @ 00:00 UTC
(32 minutes ago)
VFR
Wind Visibility
210° at 11 knots 10,000+ meters
Clouds
  • Few at 1,200' AGL
Temperature Dewpoint
29°C / 84°F 26°C / 79°F
Humidity Altimeter Pressure
84% 29.85" Hg 1011 hPa